createdAt,value
2018-07-12T00:01:57.677Z,22.60
2018-07-12T00:04:25.018Z,22.60
2018-07-12T00:06:52.694Z,22.50
2018-07-12T00:09:20.120Z,22.50
2018-07-12T00:11:47.742Z,22.50
2018-07-12T00:14:15.060Z,22.50
2018-07-12T00:16:42.464Z,22.50
2018-07-12T00:19:09.806Z,22.50
2018-07-12T00:21:37.127Z,22.40
2018-07-12T00:24:05.501Z,22.40
2018-07-12T00:26:32.861Z,22.40
2018-07-12T00:29:00.258Z,22.40
2018-07-12T00:31:27.897Z,22.40
2018-07-12T00:33:55.210Z,22.40
2018-07-12T00:36:22.528Z,22.40
2018-07-12T00:38:49.861Z,22.30
2018-07-12T00:41:17.277Z,22.30
2018-07-12T00:43:44.632Z,22.30
2018-07-12T00:46:11.978Z,22.30
2018-07-12T00:48:39.481Z,22.30
2018-07-12T00:51:06.912Z,22.30
2018-07-12T00:53:34.483Z,22.20
2018-07-12T00:56:01.805Z,22.20
2018-07-12T00:58:29.174Z,22.20
2018-07-12T01:00:56.517Z,22.20
2018-07-12T01:03:24.508Z,22.20
2018-07-12T01:05:51.816Z,22.20
2018-07-12T01:08:19.154Z,22.10
2018-07-12T01:10:46.510Z,22.10
2018-07-12T01:13:13.843Z,22.10
2018-07-12T01:15:41.182Z,22.10
2018-07-12T01:18:08.513Z,22.10
2018-07-12T01:20:36.087Z,22.10
2018-07-12T01:23:03.828Z,22.10
2018-07-12T01:25:31.148Z,22.10
2018-07-12T01:27:58.573Z,22.10
2018-07-12T01:30:25.941Z,22.00
2018-07-12T01:32:53.428Z,22.10
2018-07-12T01:35:20.760Z,22.00
2018-07-12T01:37:48.306Z,22.00
2018-07-12T01:40:15.624Z,22.00
2018-07-12T01:42:42.959Z,22.00
2018-07-12T01:45:10.310Z,22.00
2018-07-12T01:47:38.107Z,22.00
2018-07-12T01:50:05.449Z,22.00
2018-07-12T01:52:32.830Z,21.90
2018-07-12T01:55:00.205Z,21.90
2018-07-12T01:57:27.539Z,21.90
2018-07-12T01:59:54.913Z,21.90
2018-07-12T02:02:22.956Z,21.90
2018-07-12T02:04:50.260Z,21.90
2018-07-12T02:07:17.580Z,21.90
2018-07-12T02:09:45.681Z,21.90
2018-07-12T02:12:13.072Z,21.90
2018-07-12T02:14:40.470Z,21.80
2018-07-12T02:17:07.819Z,21.80
2018-07-12T02:19:35.142Z,21.80
2018-07-12T02:22:02.480Z,21.80
2018-07-12T02:24:29.939Z,21.80
2018-07-12T02:26:57.352Z,21.80
2018-07-12T02:29:24.743Z,21.80
2018-07-12T02:31:52.120Z,21.80
2018-07-12T02:34:19.457Z,21.70
2018-07-12T02:36:46.813Z,21.70
2018-07-12T02:39:14.151Z,21.70
2018-07-12T02:41:41.477Z,21.70
2018-07-12T02:44:08.820Z,21.70
2018-07-12T02:46:36.182Z,21.70
2018-07-12T02:49:03.566Z,21.70
2018-07-12T02:51:30.926Z,21.70
2018-07-12T02:53:58.266Z,21.70
2018-07-12T02:56:25.582Z,21.60
2018-07-12T02:58:52.960Z,21.70
2018-07-12T03:01:20.305Z,21.60
2018-07-12T03:03:47.661Z,21.60
2018-07-12T03:06:15.044Z,21.60
2018-07-12T03:08:42.559Z,21.60
2018-07-12T03:11:10.073Z,21.60
2018-07-12T03:13:37.559Z,21.60
2018-07-12T03:16:04.909Z,21.60
2018-07-12T03:18:32.295Z,21.60
2018-07-12T03:20:59.657Z,21.50
2018-07-12T03:23:27.755Z,21.50
2018-07-12T03:25:55.386Z,21.50
2018-07-12T03:28:22.730Z,21.50
2018-07-12T03:30:50.287Z,21.50
2018-07-12T03:33:17.669Z,21.50
2018-07-12T03:35:45.012Z,21.50
2018-07-12T03:40:40.088Z,21.50
2018-07-12T03:43:07.489Z,21.50
2018-07-12T03:45:34.885Z,21.50
2018-07-12T03:48:02.196Z,21.50
2018-07-12T03:50:29.539Z,21.50
2018-07-12T03:52:56.856Z,21.40
2018-07-12T03:55:24.200Z,21.40
2018-07-12T03:57:51.535Z,21.40
2018-07-12T04:00:18.918Z,21.40
2018-07-12T04:02:46.822Z,21.50
2018-07-12T04:05:14.140Z,21.40
2018-07-12T04:07:41.500Z,21.40
2018-07-12T04:10:08.865Z,21.40
2018-07-12T04:12:36.215Z,21.40
2018-07-12T04:15:03.633Z,21.40
2018-07-12T04:17:31.993Z,21.40
2018-07-12T04:20:00.578Z,21.40
2018-07-12T04:22:29.245Z,21.40
2018-07-12T04:24:56.570Z,21.40
2018-07-12T04:27:24.423Z,21.40
2018-07-12T04:29:53.029Z,21.40
2018-07-12T04:32:20.379Z,21.40
2018-07-12T04:34:48.731Z,21.40
2018-07-12T04:37:16.316Z,21.40
2018-07-12T04:39:43.722Z,21.40
2018-07-12T04:42:11.051Z,21.40
2018-07-12T04:44:38.362Z,21.40
2018-07-12T04:47:05.792Z,21.40
2018-07-12T04:49:33.155Z,21.40
2018-07-12T04:52:00.998Z,21.40
2018-07-12T04:54:28.990Z,21.40
2018-07-12T04:56:56.323Z,21.40
2018-07-12T04:59:23.671Z,21.40
2018-07-12T05:01:51.142Z,21.40
2018-07-12T05:04:18.490Z,21.40
2018-07-12T05:06:45.874Z,21.40
2018-07-12T05:09:13.209Z,21.40
2018-07-12T05:11:40.680Z,21.40
2018-07-12T05:14:08.040Z,21.40
2018-07-12T05:16:35.460Z,21.40
2018-07-12T05:19:02.799Z,21.40
2018-07-12T05:21:30.147Z,21.40
2018-07-12T05:23:57.477Z,21.40
2018-07-12T05:26:24.803Z,21.50
2018-07-12T05:31:20.050Z,21.50
2018-07-12T05:33:47.395Z,21.50
2018-07-12T05:36:27.585Z,21.50
2018-07-12T05:38:56.225Z,21.50
2018-07-12T05:41:24.650Z,21.50
2018-07-12T05:43:53.102Z,21.60
2018-07-12T05:46:21.598Z,21.50
2018-07-12T05:48:50.194Z,21.60
2018-07-12T05:51:18.847Z,21.60
2018-07-12T05:53:47.305Z,21.60
2018-07-12T05:56:15.907Z,21.60
2018-07-12T05:58:44.462Z,21.60
2018-07-12T06:01:24.903Z,21.70
2018-07-12T06:03:53.408Z,21.70
2018-07-12T06:06:21.852Z,21.70
2018-07-12T06:08:50.452Z,21.70
2018-07-12T06:11:19.516Z,21.80
2018-07-12T06:13:48.009Z,21.80
2018-07-12T06:16:16.527Z,21.80
2018-07-12T06:18:45.000Z,21.80
2018-07-12T06:21:13.612Z,21.80
2018-07-12T06:23:42.852Z,21.80
2018-07-12T06:26:11.334Z,21.80
2018-07-12T06:28:40.433Z,21.80
2018-07-12T06:31:09.101Z,21.90
2018-07-12T06:33:38.663Z,21.90
2018-07-12T06:36:07.191Z,22.00
2018-07-12T06:38:35.633Z,22.10
2018-07-12T06:41:04.293Z,22.10
2018-07-12T06:43:32.844Z,22.10
2018-07-12T06:46:01.420Z,22.10
2018-07-12T06:48:29.878Z,22.10
2018-07-12T06:50:58.346Z,22.20
2018-07-12T06:53:26.792Z,22.20
2018-07-12T06:55:55.714Z,22.20
2018-07-12T06:58:24.769Z,22.20
2018-07-12T07:00:53.300Z,22.20
2018-07-12T07:03:22.815Z,22.30
2018-07-12T07:05:51.365Z,22.30
2018-07-12T07:08:21.242Z,22.40
2018-07-12T07:10:49.714Z,22.40
2018-07-12T07:13:18.201Z,22.50
2018-07-12T07:15:47.583Z,22.50
2018-07-12T07:18:18.492Z,22.50
2018-07-12T07:20:47.198Z,22.00
2018-07-12T07:23:16.093Z,21.60
2018-07-12T07:25:45.545Z,21.50
2018-07-12T07:28:14.192Z,21.40
2018-07-12T07:30:43.128Z,21.30
2018-07-12T07:33:11.719Z,21.20
2018-07-12T07:35:40.259Z,21.20
2018-07-12T07:38:08.842Z,21.20
2018-07-12T07:40:37.709Z,21.10
2018-07-12T07:43:07.236Z,21.20
2018-07-12T07:45:35.934Z,21.20
2018-07-12T07:48:04.381Z,21.20
2018-07-12T07:50:32.934Z,21.20
2018-07-12T07:53:01.434Z,21.20
2018-07-12T07:55:29.881Z,21.20
2018-07-12T07:57:58.384Z,21.10
2018-07-12T08:00:27.018Z,21.00
2018-07-12T08:02:55.485Z,21.00
2018-07-12T08:05:23.965Z,21.00
2018-07-12T08:07:52.656Z,21.20
2018-07-12T08:12:50.108Z,21.20
2018-07-12T08:15:18.703Z,21.20
2018-07-12T08:20:15.561Z,21.20
2018-07-12T08:22:44.170Z,21.20
2018-07-12T08:25:13.252Z,21.20
2018-07-12T08:27:52.947Z,21.30
2018-07-12T08:30:21.494Z,21.30
2018-07-12T08:32:49.997Z,21.50
2018-07-12T08:35:18.574Z,21.60
2018-07-12T08:37:47.135Z,21.50
2018-07-12T08:40:16.919Z,21.60
2018-07-12T08:42:45.598Z,21.70
2018-07-12T08:45:14.261Z,21.70
2018-07-12T08:50:11.370Z,21.90
2018-07-12T08:52:39.921Z,22.00
2018-07-12T08:55:08.538Z,22.20
2018-07-12T08:57:38.084Z,22.40
2018-07-12T09:00:06.665Z,22.40
2018-07-12T09:02:35.294Z,22.50
2018-07-12T09:05:03.946Z,22.50
2018-07-12T09:07:32.613Z,22.60
2018-07-12T09:10:01.135Z,22.70
2018-07-12T09:12:29.652Z,22.70
2018-07-12T09:14:58.317Z,22.70
2018-07-12T09:17:26.913Z,22.80
2018-07-12T09:19:55.385Z,22.90
2018-07-12T09:22:24.006Z,23.00
2018-07-12T09:24:52.954Z,23.10
2018-07-12T09:27:21.552Z,23.20
2018-07-12T09:29:50.227Z,23.30
2018-07-12T09:32:18.859Z,23.40
2018-07-12T09:34:47.858Z,23.40
2018-07-12T09:37:16.503Z,23.60
2018-07-12T09:39:45.127Z,23.70
2018-07-12T09:42:14.335Z,23.80
2018-07-12T09:44:42.802Z,23.90
2018-07-12T09:47:11.309Z,24.00
2018-07-12T09:49:39.852Z,24.10
2018-07-12T09:52:12.765Z,24.10
2018-07-12T09:54:41.306Z,24.30
2018-07-12T09:57:21.645Z,24.30
2018-07-12T09:59:50.260Z,24.30
2018-07-12T10:02:24.483Z,24.40
2018-07-12T10:04:53.001Z,24.50
2018-07-12T10:07:26.909Z,24.60
2018-07-12T10:09:55.484Z,24.70
2018-07-12T10:12:32.922Z,24.80
2018-07-12T10:15:11.083Z,24.90
2018-07-12T10:17:43.603Z,25.10
2018-07-12T10:20:12.217Z,25.20
2018-07-12T10:22:40.829Z,25.30
2018-07-12T10:25:10.680Z,25.40
2018-07-12T10:27:39.851Z,25.50
2018-07-12T10:30:08.589Z,25.60
2018-07-12T10:32:37.582Z,25.70
2018-07-12T10:35:06.216Z,25.80
2018-07-12T10:37:34.825Z,25.90
2018-07-12T10:40:03.505Z,26.00
2018-07-12T10:42:31.987Z,26.10
2018-07-12T10:45:00.578Z,26.20
2018-07-12T10:47:29.089Z,26.30
2018-07-12T10:52:25.807Z,26.30
2018-07-12T10:54:54.356Z,26.30
2018-07-12T10:57:22.951Z,26.20
2018-07-12T10:59:51.447Z,26.30
2018-07-12T11:02:20.682Z,26.30
2018-07-12T11:04:49.314Z,26.40
2018-07-12T11:07:17.793Z,26.40
2018-07-12T11:09:46.414Z,26.60
2018-07-12T11:14:43.264Z,26.90
2018-07-12T11:17:11.814Z,27.10
2018-07-12T11:19:40.465Z,27.20
2018-07-12T11:22:09.065Z,27.40
2018-07-12T11:24:37.598Z,27.60
2018-07-12T11:27:09.357Z,27.70
2018-07-12T11:29:50.412Z,27.80
2018-07-12T11:32:19.200Z,28.00
2018-07-12T11:34:47.769Z,28.10
2018-07-12T11:37:21.388Z,28.30
2018-07-12T11:39:49.833Z,28.50
2018-07-12T11:42:19.249Z,28.70
2018-07-12T11:44:48.280Z,28.80
2018-07-12T11:47:16.730Z,29.00
2018-07-12T11:49:45.375Z,29.20
2018-07-12T11:52:14.026Z,29.30
2018-07-12T11:54:43.203Z,29.40
2018-07-12T11:57:11.991Z,29.70
2018-07-12T11:59:40.466Z,29.90
2018-07-12T12:02:09.070Z,30.00
2018-07-12T12:04:37.600Z,30.20
2018-07-12T12:07:06.134Z,30.20
2018-07-12T12:09:34.597Z,30.40
2018-07-12T12:12:03.132Z,30.60
2018-07-12T12:14:31.669Z,30.80
2018-07-12T12:17:00.136Z,31.00
2018-07-12T12:19:29.238Z,31.20
2018-07-12T12:21:58.189Z,31.30
2018-07-12T12:24:26.715Z,31.50
2018-07-12T12:26:55.144Z,31.60
2018-07-12T12:29:23.811Z,31.80
2018-07-12T12:31:52.392Z,32.00
2018-07-12T12:34:20.896Z,32.20
2018-07-12T12:36:49.434Z,32.30
2018-07-12T12:41:46.083Z,32.70
2018-07-12T12:44:14.529Z,32.80
2018-07-12T12:46:43.544Z,33.00
2018-07-12T12:49:12.101Z,33.20
2018-07-12T12:51:40.682Z,33.20
2018-07-12T12:54:09.364Z,33.40
2018-07-12T12:56:37.805Z,33.40
2018-07-12T12:59:06.336Z,33.50
2018-07-12T13:01:34.927Z,33.60
2018-07-12T13:04:03.435Z,33.80
2018-07-12T13:06:32.353Z,33.80
2018-07-12T13:09:00.951Z,33.90
2018-07-12T13:11:29.414Z,34.00
2018-07-12T13:13:57.879Z,34.10
2018-07-12T13:16:26.354Z,34.20
2018-07-12T13:18:54.795Z,34.30
2018-07-12T13:21:23.229Z,34.40
2018-07-12T13:23:51.679Z,34.40
2018-07-12T13:26:20.109Z,34.50
2018-07-12T13:28:48.612Z,34.50
2018-07-12T13:31:17.128Z,34.50
2018-07-12T13:33:45.576Z,34.40
2018-07-12T13:36:14.202Z,34.40
2018-07-12T13:38:42.807Z,34.40
2018-07-12T13:41:11.357Z,34.20
2018-07-12T13:43:40.278Z,34.00
2018-07-12T13:46:08.761Z,33.60
2018-07-12T13:48:37.413Z,33.10
2018-07-12T13:51:05.919Z,32.80
2018-07-12T13:53:34.397Z,32.60
2018-07-12T13:56:02.973Z,32.50
2018-07-12T13:58:31.489Z,32.30
2018-07-12T14:00:59.979Z,32.20
2018-07-12T14:03:28.563Z,32.20
2018-07-12T14:05:57.145Z,32.20
2018-07-12T14:08:25.581Z,32.10
2018-07-12T14:10:54.849Z,32.10
2018-07-12T14:13:23.467Z,32.00
2018-07-12T14:15:52.179Z,31.60
2018-07-12T14:18:20.689Z,31.40
2018-07-12T14:20:49.138Z,31.10
2018-07-12T14:23:17.704Z,31.10
2018-07-12T14:25:46.220Z,31.10
2018-07-12T14:28:14.773Z,31.10
2018-07-12T14:30:43.336Z,31.10
2018-07-12T14:33:11.775Z,31.10
2018-07-12T14:35:40.258Z,31.00
2018-07-12T14:38:08.709Z,30.80
2018-07-12T14:40:37.272Z,30.70
2018-07-12T14:43:05.749Z,30.50
2018-07-12T14:45:34.262Z,30.50
2018-07-12T14:50:30.925Z,30.30
2018-07-12T14:52:59.434Z,30.20
2018-07-12T14:55:27.897Z,30.10
2018-07-12T14:57:56.422Z,30.00
2018-07-12T15:00:24.914Z,29.90
2018-07-12T15:02:53.481Z,29.90
2018-07-12T15:05:21.960Z,29.90
2018-07-12T15:07:50.537Z,30.00
2018-07-12T15:10:19.144Z,30.00
2018-07-12T15:12:47.616Z,30.00
2018-07-12T15:15:16.117Z,30.00
2018-07-12T15:17:44.716Z,29.90
2018-07-12T15:20:13.210Z,29.80
2018-07-12T15:22:41.754Z,29.80
2018-07-12T15:25:10.232Z,29.60
2018-07-12T15:27:38.712Z,29.60
2018-07-12T15:30:07.169Z,29.50
2018-07-12T15:32:35.589Z,29.50
2018-07-12T15:35:04.052Z,29.50
2018-07-12T15:40:02.391Z,29.60
2018-07-12T15:42:31.079Z,29.70
2018-07-12T15:44:59.627Z,29.70
2018-07-12T15:47:28.232Z,29.80
2018-07-12T15:49:56.867Z,29.80
2018-07-12T15:52:25.392Z,29.80
2018-07-12T15:54:54.538Z,29.80
2018-07-12T15:57:27.612Z,29.80
2018-07-12T15:59:56.173Z,29.80
2018-07-12T16:02:24.651Z,29.70
2018-07-12T16:04:53.295Z,29.70
2018-07-12T16:07:21.861Z,29.60
2018-07-12T16:09:50.453Z,29.60
2018-07-12T16:12:19.109Z,29.60
2018-07-12T16:14:52.320Z,29.60
2018-07-12T16:17:20.958Z,29.50
2018-07-12T16:22:22.194Z,29.40
2018-07-12T16:24:50.706Z,29.40
2018-07-12T16:27:19.222Z,29.40
2018-07-12T16:29:47.781Z,29.30
2018-07-12T16:32:16.719Z,29.30
2018-07-12T16:34:45.235Z,29.30
2018-07-12T16:37:14.579Z,29.30
2018-07-12T16:39:43.111Z,29.30
2018-07-12T16:42:11.809Z,29.20
2018-07-12T16:44:40.592Z,29.10
2018-07-12T16:47:09.571Z,29.10
2018-07-12T16:49:38.278Z,29.00
2018-07-12T16:52:06.939Z,29.00
2018-07-12T16:54:35.517Z,29.00
2018-07-12T16:57:04.152Z,28.90
2018-07-12T16:59:32.739Z,28.90
2018-07-12T17:02:01.511Z,28.80
2018-07-12T17:04:30.050Z,28.90
2018-07-12T17:06:58.594Z,28.80
2018-07-12T17:11:55.439Z,28.70
2018-07-12T17:14:24.035Z,28.60
2018-07-12T17:16:52.568Z,28.60
2018-07-12T17:19:21.801Z,28.60
2018-07-12T17:21:50.548Z,28.60
2018-07-12T17:24:19.045Z,28.60
2018-07-12T17:26:47.631Z,28.50
2018-07-12T17:29:16.251Z,28.50
2018-07-12T17:31:45.757Z,28.40
2018-07-12T17:34:14.303Z,28.40
2018-07-12T17:36:42.795Z,28.40
2018-07-12T17:39:11.333Z,28.30
2018-07-12T17:41:39.915Z,28.30
2018-07-12T17:44:09.104Z,28.20
2018-07-12T17:46:37.772Z,28.20
2018-07-12T17:49:06.358Z,28.10
2018-07-12T17:51:34.917Z,28.10
2018-07-12T17:54:03.617Z,28.00
2018-07-12T17:56:32.153Z,28.00
2018-07-12T17:59:00.763Z,27.90
2018-07-12T18:01:29.263Z,27.80
2018-07-12T18:03:57.776Z,27.80
2018-07-12T18:06:26.396Z,27.70
2018-07-12T18:08:55.009Z,27.70
2018-07-12T18:11:23.493Z,27.70
2018-07-12T18:13:51.983Z,27.60
2018-07-12T18:16:20.555Z,27.60
2018-07-12T18:18:49.132Z,27.60
2018-07-12T18:21:17.666Z,27.50
2018-07-12T18:23:46.747Z,27.40
2018-07-12T18:26:15.256Z,27.40
2018-07-12T18:28:43.779Z,27.30
2018-07-12T18:31:12.276Z,27.30
2018-07-12T18:33:45.039Z,27.20
2018-07-12T18:36:13.672Z,27.10
2018-07-12T18:38:42.265Z,27.10
2018-07-12T18:41:10.891Z,27.00
2018-07-12T18:43:46.092Z,26.90
2018-07-12T18:46:14.617Z,26.90
2018-07-12T18:48:43.146Z,26.80
2018-07-12T18:51:11.686Z,26.80
2018-07-12T18:53:41.283Z,26.70
2018-07-12T18:56:09.812Z,26.70
2018-07-12T18:58:38.336Z,26.60
2018-07-12T19:01:06.938Z,26.60
2018-07-12T19:03:35.547Z,26.50
2018-07-12T19:06:04.237Z,26.50
2018-07-12T19:08:32.943Z,26.40
2018-07-12T19:11:01.615Z,26.40
2018-07-12T19:13:30.182Z,26.30
2018-07-12T19:15:58.762Z,26.30
2018-07-12T19:18:27.409Z,26.20
2018-07-12T19:20:56.296Z,26.20
2018-07-12T19:23:24.945Z,26.20
2018-07-12T19:25:53.571Z,26.10
2018-07-12T19:28:22.298Z,26.10
2018-07-12T19:30:50.942Z,26.00
2018-07-12T19:33:19.967Z,26.00
2018-07-12T19:35:48.778Z,25.90
2018-07-12T19:38:17.473Z,25.90
2018-07-12T19:40:46.004Z,25.90
2018-07-12T19:43:14.759Z,25.80
2018-07-12T19:45:43.470Z,25.80
2018-07-12T19:48:12.036Z,25.80
2018-07-12T19:53:10.108Z,25.70
2018-07-12T19:55:38.720Z,25.60
2018-07-12T19:58:07.200Z,25.60
2018-07-12T20:00:35.736Z,25.60
2018-07-12T20:03:04.400Z,25.50
2018-07-12T20:05:33.052Z,25.50
2018-07-12T20:08:01.502Z,25.40
2018-07-12T20:10:30.129Z,25.40
2018-07-12T20:12:58.655Z,25.40
2018-07-12T20:15:27.386Z,25.40
2018-07-12T20:17:56.737Z,25.30
2018-07-12T20:20:25.234Z,25.30
2018-07-12T20:22:53.748Z,25.30
2018-07-12T20:25:22.310Z,25.30
2018-07-12T20:27:50.850Z,25.20
2018-07-12T20:30:19.828Z,25.20
2018-07-12T20:32:48.497Z,25.20
2018-07-12T20:35:17.022Z,25.10
2018-07-12T20:37:45.564Z,25.10
2018-07-12T20:40:14.122Z,25.00
2018-07-12T20:42:42.613Z,25.00
2018-07-12T20:45:11.246Z,25.00
2018-07-12T20:47:39.895Z,24.90
2018-07-12T20:50:08.404Z,24.90
2018-07-12T20:52:37.019Z,24.80
2018-07-12T20:55:05.553Z,24.80
2018-07-12T20:57:34.053Z,24.80
2018-07-12T21:00:02.590Z,24.70
2018-07-12T21:02:31.176Z,24.70
2018-07-12T21:04:59.648Z,24.70
2018-07-12T21:07:28.193Z,24.60
2018-07-12T21:09:56.793Z,24.60
2018-07-12T21:12:25.256Z,24.60
2018-07-12T21:14:54.007Z,24.50
2018-07-12T21:17:22.476Z,24.50
2018-07-12T21:19:50.956Z,24.40
2018-07-12T21:22:19.508Z,24.40
2018-07-12T21:24:48.228Z,24.40
2018-07-12T21:27:16.766Z,24.40
2018-07-12T21:29:45.257Z,24.40
2018-07-12T21:32:13.875Z,24.30
2018-07-12T21:34:42.417Z,24.30
2018-07-12T21:37:10.961Z,24.30
2018-07-12T21:39:39.654Z,24.30
2018-07-12T21:42:08.299Z,24.20
2018-07-12T21:44:36.960Z,24.20
2018-07-12T21:47:05.475Z,24.10
2018-07-12T21:49:34.040Z,24.10
2018-07-12T21:52:02.629Z,24.10
2018-07-12T21:54:31.106Z,24.10
2018-07-12T21:56:59.716Z,24.00
2018-07-12T21:59:28.341Z,24.00
2018-07-12T22:01:57.665Z,24.00
2018-07-12T22:04:26.202Z,23.90
2018-07-12T22:07:09.369Z,23.90
2018-07-12T22:09:37.910Z,23.90
2018-07-12T22:12:06.406Z,23.90
2018-07-12T22:14:35.133Z,23.90
2018-07-12T22:17:03.621Z,23.80
2018-07-12T22:19:32.154Z,23.80
2018-07-12T22:22:00.687Z,23.80
2018-07-12T22:24:29.337Z,23.80
2018-07-12T22:26:57.787Z,23.80
2018-07-12T22:29:26.247Z,23.80
2018-07-12T22:31:54.715Z,23.80
2018-07-12T22:34:23.174Z,23.80
2018-07-12T22:36:52.058Z,23.80
2018-07-12T22:39:20.847Z,23.80
2018-07-12T22:41:49.724Z,23.80
2018-07-12T22:44:18.056Z,23.10
2018-07-12T22:46:46.649Z,22.10
2018-07-12T22:49:15.136Z,21.60
2018-07-12T22:51:43.916Z,21.40
2018-07-12T22:54:12.825Z,21.30
2018-07-12T22:56:41.234Z,21.30
2018-07-12T22:59:10.005Z,21.20
2018-07-12T23:01:38.497Z,21.10
2018-07-12T23:04:06.967Z,20.90
2018-07-12T23:06:35.645Z,20.80
2018-07-12T23:09:05.281Z,20.70
2018-07-12T23:11:33.851Z,20.60
2018-07-12T23:14:02.388Z,20.50
2018-07-12T23:16:31.089Z,20.40
2018-07-12T23:18:59.855Z,20.30
2018-07-12T23:21:28.292Z,20.20
2018-07-12T23:23:56.748Z,20.20
2018-07-12T23:26:25.401Z,20.20
2018-07-12T23:28:54.221Z,20.00
2018-07-12T23:31:23.191Z,19.90
2018-07-12T23:33:51.719Z,19.80
2018-07-12T23:36:20.597Z,19.80
2018-07-12T23:38:49.201Z,19.80
2018-07-12T23:41:17.667Z,19.80
2018-07-12T23:43:46.195Z,19.80
2018-07-12T23:46:15.178Z,19.80
2018-07-12T23:48:43.644Z,19.80
2018-07-12T23:51:12.712Z,19.70
2018-07-12T23:56:09.438Z,19.60
2018-07-12T23:58:37.992Z,19.60
